Time;durP1;ratioP1;P1;durP2;ratioP2;P2;SDS_P1;SDS_P2;PMS_P1;PMS_P2;Temp;Humidity;BMP_temperature;BMP_pressure;BME280_temperature;BME280_humidity;BME280_pressure;Samples;Min_cycle;Max_cycle;Signal;HPM_P1;HPM_P2
2021/11/03 00:00:49;;;;;;;26.05;11.77;;;;;;;;;;10371686;28;20024;-60
2021/11/03 00:05:47;;;;;;;28.83;12.53;;;;;;;;;;10364321;28;20039;-61
2021/11/03 00:10:45;;;;;;;29.07;14.07;;;;;;;;;;10368552;28;20028;-61
2021/11/03 00:15:42;;;;;;;23.70;11.88;;;;;;;;;;10368230;28;20032;-61
2021/11/03 00:20:40;;;;;;;33.50;14.87;;;;;;;;;;10369266;28;20048;-61
2021/11/03 00:25:40;;;;;;;22.67;11.07;;;;;;;;;;10365245;28;20356;-61
2021/11/03 00:30:37;;;;;;;23.90;11.50;;;;;;;;;;10377593;28;20041;-61
2021/11/03 00:35:35;;;;;;;20.13;9.77;;;;;;;;;;10374971;28;20052;-61
2021/11/03 00:40:32;;;;;;;27.30;13.73;;;;;;;;;;10373981;28;20040;-61
2021/11/03 00:45:30;;;;;;;24.27;12.37;;;;;;;;;;10358999;28;20043;-60
2021/11/03 00:50:28;;;;;;;28.85;14.60;;;;;;;;;;10373673;28;20041;-61
2021/11/03 00:55:26;;;;;;;30.77;13.53;;;;;;;;;;10380199;28;20029;-61
2021/11/03 01:00:23;;;;;;;23.60;12.87;;;;;;;;;;10368685;28;20036;-61
2021/11/03 01:05:22;;;;;;;22.10;10.87;;;;;;;;;;10377991;28;20028;-60
2021/11/03 01:10:22;;;;;;;13.52;7.28;;;;;;;;;;10368226;28;20259;-61
2021/11/03 01:15:21;;;;;;;14.93;7.53;;;;;;;;;;10384938;28;20033;-62
2021/11/03 01:20:19;;;;;;;22.08;9.18;;;;;;;;;;10380702;28;20024;-62
2021/11/03 01:25:16;;;;;;;22.73;12.07;;;;;;;;;;10381565;28;20908;-62
2021/11/03 01:30:17;;;;;;;12.93;7.17;;;;;;;;;;10395454;28;20024;-62
2021/11/03 01:35:16;;;;;;;15.50;8.30;;;;;;;;;;10378822;28;20123;-62
2021/11/03 01:40:15;;;;;;;22.83;11.00;;;;;;;;;;10396375;28;20128;-61
2021/11/03 01:45:14;;;;;;;23.15;11.65;;;;;;;;;;10390058;28;20024;-61
2021/11/03 01:50:21;;;;;;;20.65;10.68;;;;;;;;;;10380258;28;20123;-60
2021/11/03 01:55:19;;;;;;;17.75;10.18;;;;;;;;;;10379528;28;20378;-60
2021/11/03 02:00:24;;;;;;;5.63;3.90;;;;;;;;;;10376019;28;20024;-60
2021/11/03 02:05:27;;;;;;;18.35;8.80;;;;;;;;;;10380317;28;20950;-62
2021/11/03 02:10:25;;;;;;;14.33;5.60;;;;;;;;;;10378920;28;20032;-60
2021/11/03 02:15:27;;;;;;;9.88;5.68;;;;;;;;;;10362614;28;20488;-61
2021/11/03 02:20:25;;;;;;;22.15;9.82;;;;;;;;;;10377241;28;20405;-61
2021/11/03 02:25:28;;;;;;;16.50;7.35;;;;;;;;;;10388915;28;20040;-61
2021/11/03 02:30:26;;;;;;;12.18;6.60;;;;;;;;;;10382564;28;20055;-61
2021/11/03 02:35:23;;;;;;;14.93;7.93;;;;;;;;;;10384264;28;20025;-59
2021/11/03 02:40:24;;;;;;;12.23;7.90;;;;;;;;;;10381280;28;20020;-62
2021/11/03 02:45:40;;;;;;;19.42;10.75;;;;;;;;;;10381677;28;20440;-63
2021/11/03 02:50:50;;;;;;;17.13;10.48;;;;;;;;;;10376855;28;20054;-60
2021/11/03 02:55:48;;;;;;;13.43;6.20;;;;;;;;;;10380082;28;20115;-61
2021/11/03 03:00:46;;;;;;;14.23;6.47;;;;;;;;;;10385215;28;20043;-61
2021/11/03 03:05:47;;;;;;;19.00;9.68;;;;;;;;;;10388119;28;20128;-61
2021/11/03 03:10:44;;;;;;;19.25;8.48;;;;;;;;;;10351543;28;20075;-61
2021/11/03 03:15:42;;;;;;;11.97;6.20;;;;;;;;;;10372152;28;20064;-61
2021/11/03 03:20:40;;;;;;;19.40;10.10;;;;;;;;;;10400264;28;20033;-61
2021/11/03 03:25:39;;;;;;;15.55;8.73;;;;;;;;;;10385049;28;20029;-61
2021/11/03 03:30:37;;;;;;;15.45;8.65;;;;;;;;;;10385437;28;20140;-61
2021/11/03 03:35:35;;;;;;;21.00;10.70;;;;;;;;;;10392442;28;20052;-61
2021/11/03 03:40:32;;;;;;;13.47;6.43;;;;;;;;;;10358881;28;20044;-63
2021/11/03 03:45:30;;;;;;;15.05;6.57;;;;;;;;;;10384680;28;20429;-62
2021/11/03 03:50:28;;;;;;;16.17;7.13;;;;;;;;;;10379340;28;20037;-63
2021/11/03 03:55:25;;;;;;;11.73;5.87;;;;;;;;;;10374988;28;20036;-62
2021/11/03 04:00:23;;;;;;;18.93;9.07;;;;;;;;;;10386101;28;20025;-62
2021/11/03 04:05:24;;;;;;;14.77;5.30;;;;;;;;;;10394491;28;20309;-63
2021/11/03 04:10:21;;;;;;;17.00;7.03;;;;;;;;;;10407065;28;20100;-64
2021/11/03 04:15:20;;;;;;;8.70;5.40;;;;;;;;;;10394812;28;20025;-63
2021/11/03 04:20:18;;;;;;;15.65;8.18;;;;;;;;;;10362504;28;20060;-62
2021/11/03 04:25:16;;;;;;;20.53;10.13;;;;;;;;;;10358019;28;20505;-62
2021/11/03 04:30:16;;;;;;;19.90;10.63;;;;;;;;;;10354421;28;21069;-62
2021/11/03 04:35:14;;;;;;;28.05;13.30;;;;;;;;;;10372339;28;20037;-61
2021/11/03 04:40:13;;;;;;;15.82;8.25;;;;;;;;;;10360813;28;20021;-60
2021/11/03 04:45:12;;;;;;;18.40;8.90;;;;;;;;;;10363747;28;20417;-60
2021/11/03 04:50:14;;;;;;;29.63;12.57;;;;;;;;;;10371754;28;20062;-61
2021/11/03 04:55:12;;;;;;;26.42;14.25;;;;;;;;;;10378132;28;20465;-62
2021/11/03 05:00:15;;;;;;;23.03;9.93;;;;;;;;;;10380228;28;20036;-60
2021/11/03 05:05:13;;;;;;;23.33;12.82;;;;;;;;;;10372142;28;20592;-61
2021/11/03 05:10:10;;;;;;;17.47;7.17;;;;;;;;;;10377130;28;20325;-61
2021/11/03 05:15:08;;;;;;;8.63;5.67;;;;;;;;;;10378609;28;20275;-62
2021/11/03 05:20:07;;;;;;;12.90;6.50;;;;;;;;;;10382703;28;20036;-61
2021/11/03 05:25:05;;;;;;;15.48;7.07;;;;;;;;;;10379740;28;20051;-62
2021/11/03 05:30:03;;;;;;;30.25;12.55;;;;;;;;;;10378828;28;20048;-62
2021/11/03 05:35:00;;;;;;;;;;;;;;;;;;10374272;28;20063;-62
2021/11/03 05:39:58;;;;;;;15.40;8.20;;;;;;;;;;10377961;28;19920;-60
2021/11/03 05:44:55;;;;;;;19.70;10.97;;;;;;;;;;10382691;28;20044;-63
2021/11/03 05:49:53;;;;;;;23.53;10.53;;;;;;;;;;10360393;28;20051;-62
2021/11/03 05:54:51;;;;;;;21.73;9.47;;;;;;;;;;10393464;28;20035;-62
2021/11/03 05:59:49;;;;;;;22.10;9.50;;;;;;;;;;10389384;28;20071;-62
2021/11/03 06:04:46;;;;;;;14.97;6.70;;;;;;;;;;10377457;28;20105;-61
2021/11/03 06:09:44;;;;;;;14.83;5.83;;;;;;;;;;10386670;28;20298;-62
2021/11/03 06:14:41;;;;;;;22.20;10.13;;;;;;;;;;10369166;28;20842;-61
2021/11/03 06:24:41;;;;;;;23.40;11.38;;;;;;;;;;10237281;28;20050;-62
2021/11/03 06:29:39;;;;;;;21.10;10.93;;;;;;;;;;10230726;28;20077;-62
2021/11/03 06:34:37;;;;;;;24.03;10.20;;;;;;;;;;10235217;28;20543;-62
2021/11/03 06:39:34;;;;;;;19.60;9.63;;;;;;;;;;10226104;28;20041;-63
2021/11/03 06:44:32;;;;;;;20.67;10.17;;;;;;;;;;10234356;28;20052;-61
2021/11/03 06:49:29;;;;;;;14.63;8.65;;;;;;;;;;10221282;28;20069;-63
2021/11/03 06:54:27;;;;;;;19.17;8.20;;;;;;;;;;10232682;28;20040;-62
2021/11/03 06:59:24;;;;;;;16.20;7.60;;;;;;;;;;10204046;28;20037;-63
2021/11/03 07:04:22;;;;;;;13.60;7.83;;;;;;;;;;10227169;28;20042;-62
2021/11/03 07:09:19;;;;;;;11.13;6.30;;;;;;;;;;10210353;28;20044;-62
2021/11/03 07:14:17;;;;;;;17.40;7.77;;;;;;;;;;10213611;28;20037;-62
2021/11/03 07:19:14;;;;;;;12.90;6.90;;;;;;;;;;10226536;28;20047;-62
2021/11/03 07:24:13;;;;;;;9.10;5.87;;;;;;;;;;10237167;28;20563;-62
2021/11/03 07:29:11;;;;;;;16.63;6.88;;;;;;;;;;10227907;28;20046;-61
2021/11/03 07:34:08;;;;;;;12.13;5.72;;;;;;;;;;10187829;28;20048;-61
2021/11/03 07:39:05;;;;;;;11.97;4.83;;;;;;;;;;10231877;28;20048;-61
2021/11/03 07:44:03;;;;;;;12.13;6.67;;;;;;;;;;10247478;28;20030;-62
2021/11/03 07:49:01;;;;;;;13.80;5.45;;;;;;;;;;10244997;28;20030;-63
2021/11/03 07:53:59;;;;;;;7.73;4.47;;;;;;;;;;10247209;28;20030;-62
2021/11/03 07:58:56;;;;;;;19.00;9.82;;;;;;;;;;10246142;28;20103;-61
2021/11/03 08:03:55;;;;;;;9.07;5.33;;;;;;;;;;10253359;28;20107;-62
2021/11/03 08:13:58;;;;;;;18.40;8.23;;;;;;;;;;10258634;28;20245;-62
2021/11/03 08:18:55;;;;;;;19.13;10.20;;;;;;;;;;10224393;28;20093;-63
2021/11/03 08:23:53;;;;;;;17.00;7.97;;;;;;;;;;10227943;28;20591;-62
2021/11/03 08:28:51;;;;;;;18.07;9.57;;;;;;;;;;10222292;28;20044;-62
2021/11/03 08:33:49;;;;;;;11.57;4.00;;;;;;;;;;10235284;28;20041;-62
2021/11/03 08:38:48;;;;;;;20.33;10.27;;;;;;;;;;10240988;28;20033;-61
2021/11/03 08:43:46;;;;;;;15.75;8.52;;;;;;;;;;10249407;28;20033;-60
2021/11/03 08:48:43;;;;;;;17.08;7.45;;;;;;;;;;10232272;28;20034;-61
2021/11/03 08:53:40;;;;;;;7.80;4.20;;;;;;;;;;10250127;28;20498;-61
2021/11/03 08:58:38;;;;;;;11.23;6.50;;;;;;;;;;10221795;28;20038;-61
2021/11/03 09:03:35;;;;;;;20.70;7.37;;;;;;;;;;10235074;28;20041;-62
2021/11/03 09:08:33;;;;;;;10.60;6.03;;;;;;;;;;10231738;28;20038;-61
2021/11/03 09:13:31;;;;;;;21.03;11.63;;;;;;;;;;10225602;28;20042;-61
2021/11/03 09:18:29;;;;;;;27.23;12.77;;;;;;;;;;10236510;28;20070;-61
2021/11/03 09:23:27;;;;;;;33.10;16.20;;;;;;;;;;10235184;28;20046;-61
2021/11/03 09:28:26;;;;;;;18.40;10.13;;;;;;;;;;10232372;28;20415;-61
2021/11/03 09:33:24;;;;;;;18.20;7.88;;;;;;;;;;10247400;28;20038;-62
2021/11/03 09:38:22;;;;;;;12.18;5.78;;;;;;;;;;10225398;28;20050;-61
2021/11/03 09:43:22;;;;;;;9.40;5.20;;;;;;;;;;10240079;28;20621;-62
2021/11/03 09:48:23;;;;;;;17.48;6.10;;;;;;;;;;10248243;28;20045;-60
2021/11/03 09:53:34;;;;;;;4.30;3.08;;;;;;;;;;10254458;28;20528;-62
2021/11/03 09:58:32;;;;;;;5.88;4.35;;;;;;;;;;10248781;28;20052;-63
2021/11/03 10:03:35;;;;;;;18.23;9.00;;;;;;;;;;10243910;28;20037;-63
2021/11/03 10:08:37;;;;;;;23.98;12.05;;;;;;;;;;10219010;28;20077;-62
2021/11/03 10:13:37;;;;;;;19.65;9.73;;;;;;;;;;10240585;28;20031;-61
2021/11/03 10:18:37;;;;;;;25.98;11.15;;;;;;;;;;10239145;28;20132;-62
2021/11/03 10:23:35;;;;;;;23.55;10.57;;;;;;;;;;10232947;28;20042;-61
2021/11/03 10:28:37;;;;;;;24.43;10.83;;;;;;;;;;10229024;28;20084;-62
2021/11/03 10:33:41;;;;;;;23.55;11.55;;;;;;;;;;10242914;28;20040;-62
2021/11/03 10:38:41;;;;;;;32.10;12.48;;;;;;;;;;10231061;28;20049;-62
2021/11/03 10:43:41;;;;;;;29.98;12.60;;;;;;;;;;10239298;28;20050;-62
2021/11/03 10:48:43;;;;;;;26.58;11.80;;;;;;;;;;10246211;28;20049;-61
2021/11/03 10:53:42;;;;;;;27.75;12.45;;;;;;;;;;10243172;28;20121;-62
2021/11/03 10:58:48;;;;;;;26.47;11.07;;;;;;;;;;10227629;28;20138;-62
2021/11/03 11:03:55;;;;;;;23.40;10.77;;;;;;;;;;10237734;28;20030;-62
2021/11/03 11:09:18;;;;;;;24.52;10.57;;;;;;;;;;10218632;28;20519;-62
2021/11/03 11:14:20;;;;;;;18.83;8.65;;;;;;;;;;10235381;28;20038;-62
2021/11/03 11:19:33;;;;;;;13.73;7.70;;;;;;;;;;10250891;28;20033;-62
2021/11/03 11:24:38;;;;;;;18.70;8.55;;;;;;;;;;10238289;28;20148;-58
2021/11/03 11:29:51;;;;;;;16.38;7.95;;;;;;;;;;10230025;28;20125;-60
2021/11/03 11:34:55;;;;;;;13.98;6.50;;;;;;;;;;10241044;28;20049;-61
2021/11/03 11:40:01;;;;;;;16.20;7.65;;;;;;;;;;10246963;28;20033;-59
2021/11/03 11:45:13;;;;;;;13.07;6.15;;;;;;;;;;10230461;28;20096;-60
2021/11/03 11:50:40;;;;;;;13.88;6.10;;;;;;;;;;10227659;28;20042;-62
2021/11/03 11:55:38;;;;;;;10.13;4.05;;;;;;;;;;10206768;28;20030;-61
2021/11/03 12:00:36;;;;;;;1.80;1.70;;;;;;;;;;10236297;28;20037;-62
2021/11/03 12:05:34;;;;;;;;;;;;;;;;;;10234834;28;20041;-62
2021/11/03 12:10:32;;;;;;;5.38;3.35;;;;;;;;;;10235517;28;19917;-61
2021/11/03 12:15:42;;;;;;;3.67;2.88;;;;;;;;;;10234680;28;20092;-62
2021/11/03 12:20:43;;;;;;;4.43;3.38;;;;;;;;;;10254009;22;20524;-62
2021/11/03 12:25:43;;;;;;;6.30;3.53;;;;;;;;;;10271934;28;20080;-64
2021/11/03 12:30:42;;;;;;;8.27;4.28;;;;;;;;;;10250628;28;20037;-65
2021/11/03 12:35:39;;;;;;;12.10;4.70;;;;;;;;;;10253458;28;20026;-64
2021/11/03 12:40:37;;;;;;;8.40;4.53;;;;;;;;;;10238594;28;20503;-65
2021/11/03 12:45:39;;;;;;;10.60;4.80;;;;;;;;;;10238137;28;20045;-64
2021/11/03 12:50:39;;;;;;;5.07;3.15;;;;;;;;;;10261496;28;20026;-64
2021/11/03 12:55:43;;;;;;;16.80;5.40;;;;;;;;;;10239108;28;20034;-65
2021/11/03 13:00:41;;;;;;;4.65;2.97;;;;;;;;;;10248929;28;20574;-65
2021/11/03 13:05:44;;;;;;;14.77;5.57;;;;;;;;;;10268901;28;20373;-65
2021/11/03 13:10:42;;;;;;;8.07;4.10;;;;;;;;;;10248957;28;20109;-64
2021/11/03 13:15:41;;;;;;;12.13;5.85;;;;;;;;;;10250141;28;20093;-66
2021/11/03 13:20:41;;;;;;;12.27;5.90;;;;;;;;;;10250251;28;20048;-63
2021/11/03 13:25:44;;;;;;;16.42;6.38;;;;;;;;;;10241918;28;20128;-64
2021/11/03 13:30:41;;;;;;;13.35;6.35;;;;;;;;;;10227288;28;20041;-64
2021/11/03 13:35:39;;;;;;;12.43;6.40;;;;;;;;;;10233847;28;20236;-64
2021/11/03 13:40:38;;;;;;;10.20;5.17;;;;;;;;;;10241209;28;20042;-64
2021/11/03 13:45:41;;;;;;;12.95;4.80;;;;;;;;;;10236902;28;20077;-64
2021/11/03 13:50:48;;;;;;;20.60;5.80;;;;;;;;;;10238167;28;20037;-64
2021/11/03 13:55:52;;;;;;;8.02;4.43;;;;;;;;;;10240857;28;20080;-65
2021/11/03 14:00:56;;;;;;;6.93;4.15;;;;;;;;;;10237690;28;20045;-66
2021/11/03 14:05:53;;;;;;;16.95;6.63;;;;;;;;;;10238784;28;20032;-66
2021/11/03 14:10:51;;;;;;;5.67;2.53;;;;;;;;;;10235770;28;20034;-64
2021/11/03 14:15:48;;;;;;;7.07;4.50;;;;;;;;;;10234436;28;20030;-65
2021/11/03 14:20:48;;;;;;;13.13;4.93;;;;;;;;;;10254498;28;20038;-68
2021/11/03 14:25:49;;;;;;;10.57;4.88;;;;;;;;;;10232784;28;20109;-66
2021/11/03 14:30:58;;;;;;;11.45;5.22;;;;;;;;;;10251363;28;20038;-67
2021/11/03 14:35:57;;;;;;;8.82;4.20;;;;;;;;;;10246642;28;20126;-65
2021/11/03 14:40:54;;;;;;;7.20;3.88;;;;;;;;;;10253240;28;20341;-65
2021/11/03 14:45:52;;;;;;;9.20;3.83;;;;;;;;;;10244053;28;20485;-68
2021/11/03 14:50:52;;;;;;;7.40;3.17;;;;;;;;;;10246447;28;20022;-66
2021/11/03 14:55:52;;;;;;;2.28;1.67;;;;;;;;;;10247736;28;20026;-65
2021/11/03 15:00:52;;;;;;;3.55;1.55;;;;;;;;;;10244773;28;20022;-66
2021/11/03 15:05:50;;;;;;;7.90;3.35;;;;;;;;;;10246617;28;20030;-66
2021/11/03 15:10:48;;;;;;;;;;;;;;;;;;10242715;28;20116;-65
2021/11/03 15:15:46;;;;;;;4.60;2.95;;;;;;;;;;10243400;28;20016;-65
2021/11/03 15:20:44;;;;;;;3.37;1.33;;;;;;;;;;10233745;28;20053;-67
2021/11/03 15:25:42;;;;;;;7.03;1.98;;;;;;;;;;10261888;28;20135;-65
2021/11/03 15:30:40;;;;;;;4.07;1.47;;;;;;;;;;10256127;28;20100;-65
2021/11/03 15:35:38;;;;;;;6.47;2.47;;;;;;;;;;10246169;28;20821;-65
2021/11/03 15:40:38;;;;;;;3.13;1.55;;;;;;;;;;10244607;28;20404;-67
2021/11/03 15:45:35;;;;;;;1.90;1.35;;;;;;;;;;10243824;28;20037;-66
2021/11/03 15:50:34;;;;;;;1.70;0.97;;;;;;;;;;10252971;28;20080;-67
2021/11/03 15:55:33;;;;;;;1.17;1.17;;;;;;;;;;10251301;28;20038;-68
2021/11/03 16:00:34;;;;;;;10.75;3.47;;;;;;;;;;10234212;28;20459;-63
2021/11/03 16:05:33;;;;;;;12.48;4.00;;;;;;;;;;10251780;28;20069;-64
2021/11/03 16:10:32;;;;;;;8.32;3.75;;;;;;;;;;10242155;28;20134;-63
2021/11/03 16:15:30;;;;;;;5.68;2.88;;;;;;;;;;10236841;28;20037;-65
2021/11/03 16:20:27;;;;;;;8.07;3.67;;;;;;;;;;10248869;28;20070;-65
2021/11/03 16:25:28;;;;;;;6.63;3.50;;;;;;;;;;10252059;28;20403;-65
2021/11/03 16:30:28;;;;;;;4.28;2.35;;;;;;;;;;10245174;28;20045;-67
2021/11/03 16:35:26;;;;;;;3.10;2.05;;;;;;;;;;10243144;28;20045;-64
2021/11/03 16:40:26;;;;;;;10.63;3.57;;;;;;;;;;10240586;28;20048;-68
2021/11/03 16:45:29;;;;;;;29.40;12.20;;;;;;;;;;10242459;28;20400;-66
2021/11/03 16:50:32;;;;;;;24.83;15.85;;;;;;;;;;10236296;28;20036;-65
2021/11/03 16:55:31;;;;;;;4.88;3.65;;;;;;;;;;10248199;28;20072;-64
2021/11/03 17:00:33;;;;;;;8.55;3.92;;;;;;;;;;10242145;28;20496;-66
2021/11/03 17:05:31;;;;;;;7.68;5.60;;;;;;;;;;10242668;28;20030;-66
2021/11/03 17:10:28;;;;;;;11.50;6.97;;;;;;;;;;10236164;28;20042;-67
2021/11/03 17:15:29;;;;;;;35.95;16.45;;;;;;;;;;10239992;28;20080;-65
2021/11/03 17:20:26;;;;;;;29.88;18.02;;;;;;;;;;10242429;28;20588;-66
2021/11/03 17:25:24;;;;;;;7.60;5.67;;;;;;;;;;10251277;28;20540;-65
2021/11/03 17:30:27;;;;;;;16.27;10.17;;;;;;;;;;10231507;28;20091;-67
2021/11/03 17:35:32;;;;;;;35.78;22.08;;;;;;;;;;10240302;28;20049;-67
2021/11/03 17:40:31;;;;;;;30.73;20.58;;;;;;;;;;10239293;28;20034;-65
2021/11/03 17:45:31;;;;;;;8.23;3.03;;;;;;;;;;10243430;28;20577;-67
2021/11/03 17:50:31;;;;;;;9.63;5.25;;;;;;;;;;10241892;28;20061;-68
2021/11/03 17:55:29;;;;;;;22.25;9.00;;;;;;;;;;10244947;28;20492;-67
2021/11/03 18:00:41;;;;;;;18.75;9.27;;;;;;;;;;10249090;28;20045;-67
2021/11/03 18:05:39;;;;;;;19.17;8.55;;;;;;;;;;10234988;28;20076;-66
2021/11/03 18:10:37;;;;;;;17.17;8.87;;;;;;;;;;10239833;28;20121;-67
2021/11/03 18:15:35;;;;;;;23.75;10.35;;;;;;;;;;10238354;28;20038;-66
2021/11/03 18:20:35;;;;;;;20.00;9.90;;;;;;;;;;10239768;28;20041;-67
2021/11/03 18:25:45;;;;;;;19.67;10.40;;;;;;;;;;10240898;28;20801;-67
2021/11/03 18:30:46;;;;;;;22.38;10.93;;;;;;;;;;10235923;28;20042;-66
2021/11/03 18:35:45;;;;;;;23.42;10.00;;;;;;;;;;10243399;28;20508;-65
2021/11/03 18:40:42;;;;;;;;;;;;;;;;;;10222480;28;20045;-65
2021/11/03 18:45:39;;;;;;;24.70;10.40;;;;;;;;;;10234263;28;20486;-65
2021/11/03 18:50:39;;;;;;;22.07;10.63;;;;;;;;;;10240330;28;20381;-65
2021/11/03 18:55:39;;;;;;;23.10;10.77;;;;;;;;;;10235086;28;20038;-66
2021/11/03 19:00:38;;;;;;;18.00;9.80;;;;;;;;;;10245715;28;20062;-66
2021/11/03 19:05:39;;;;;;;26.98;11.88;;;;;;;;;;10234896;28;20491;-67
2021/11/03 19:10:36;;;;;;;27.65;11.80;;;;;;;;;;10236939;28;20417;-67
2021/11/03 19:15:37;;;;;;;25.75;10.95;;;;;;;;;;10232730;28;20362;-66
2021/11/03 19:20:34;;;;;;;28.92;11.30;;;;;;;;;;10229015;28;20501;-66
2021/11/03 19:25:34;;;;;;;29.40;10.90;;;;;;;;;;10237134;28;20050;-65
2021/11/03 19:30:34;;;;;;;22.88;10.85;;;;;;;;;;10227361;28;20030;-67
2021/11/03 19:35:33;;;;;;;20.80;10.38;;;;;;;;;;10228714;28;20423;-68
2021/11/03 19:40:34;;;;;;;23.88;10.80;;;;;;;;;;10229753;28;20487;-68
2021/11/03 19:45:33;;;;;;;23.30;12.02;;;;;;;;;;10237396;28;20142;-67
2021/11/03 19:50:34;;;;;;;24.10;11.80;;;;;;;;;;10239812;28;20551;-67
2021/11/03 19:55:31;;;;;;;27.77;10.18;;;;;;;;;;10240985;28;20040;-68
2021/11/03 20:00:31;;;;;;;17.43;9.53;;;;;;;;;;10243751;28;20044;-67
2021/11/03 20:05:29;;;;;;;22.00;9.38;;;;;;;;;;10254724;28;20124;-65
2021/11/03 20:10:33;;;;;;;20.48;9.23;;;;;;;;;;10255073;28;20124;-66
2021/11/03 20:15:39;;;;;;;18.70;9.07;;;;;;;;;;10254764;28;20041;-66
2021/11/03 20:20:37;;;;;;;18.13;9.02;;;;;;;;;;10253523;28;20053;-65
2021/11/03 20:25:36;;;;;;;20.35;9.15;;;;;;;;;;10253803;28;20393;-66
2021/11/03 20:30:41;;;;;;;23.90;8.63;;;;;;;;;;10256068;28;20042;-66
2021/11/03 20:35:58;;;;;;;15.50;8.10;;;;;;;;;;10253230;28;20045;-67
2021/11/03 20:40:57;;;;;;;15.13;6.90;;;;;;;;;;10252830;28;20045;-67
2021/11/03 20:45:55;;;;;;;14.98;7.25;;;;;;;;;;10253953;28;20544;-64
2021/11/03 20:50:54;;;;;;;15.70;6.33;;;;;;;;;;10254211;28;20532;-66
2021/11/03 20:55:51;;;;;;;;;;;;;;;;;;10252214;28;20276;-66
2021/11/03 21:00:50;;;;;;;13.43;7.22;;;;;;;;;;10254229;28;19924;-65
2021/11/03 21:05:48;;;;;;;16.95;7.32;;;;;;;;;;10251280;28;20054;-67
2021/11/03 21:10:46;;;;;;;20.20;10.60;;;;;;;;;;10255826;28;20045;-66
2021/11/03 21:15:44;;;;;;;23.00;11.68;;;;;;;;;;10255428;28;20243;-65
2021/11/03 21:20:44;;;;;;;25.98;11.85;;;;;;;;;;10260760;28;20531;-67
2021/11/03 21:25:42;;;;;;;26.80;11.15;;;;;;;;;;10263475;28;20049;-66
2021/11/03 21:30:40;;;;;;;20.92;9.25;;;;;;;;;;10263556;28;20057;-66
2021/11/03 21:35:39;;;;;;;19.20;9.27;;;;;;;;;;10261742;28;20072;-66
2021/11/03 21:40:38;;;;;;;21.20;8.65;;;;;;;;;;10263282;28;20034;-65
2021/11/03 21:45:36;;;;;;;18.77;9.32;;;;;;;;;;10254521;28;20081;-65
2021/11/03 21:50:34;;;;;;;22.13;10.90;;;;;;;;;;10252997;28;20157;-65
2021/11/03 21:55:32;;;;;;;21.42;7.55;;;;;;;;;;10249285;28;20173;-65
2021/11/03 22:00:30;;;;;;;22.47;11.13;;;;;;;;;;10248885;28;20573;-65
2021/11/03 22:05:28;;;;;;;23.37;9.20;;;;;;;;;;10251222;28;20617;-65
2021/11/03 22:10:26;;;;;;;18.00;8.43;;;;;;;;;;10256169;28;20272;-65
2021/11/03 22:15:24;;;;;;;;;;;;;;;;;;10258543;28;20042;-64
2021/11/03 22:20:23;;;;;;;21.03;9.87;;;;;;;;;;10251673;28;19917;-64
2021/11/03 22:25:20;;;;;;;31.17;10.77;;;;;;;;;;10247811;28;20054;-64
2021/11/03 22:30:20;;;;;;;21.67;9.95;;;;;;;;;;10246775;28;20459;-64
2021/11/03 22:35:18;;;;;;;18.13;8.55;;;;;;;;;;10245985;28;20042;-64
2021/11/03 22:40:18;;;;;;;24.10;11.13;;;;;;;;;;10245752;28;20042;-65
2021/11/03 22:45:17;;;;;;;17.55;8.35;;;;;;;;;;10244938;28;21167;-65
2021/11/03 22:50:16;;;;;;;22.95;10.27;;;;;;;;;;10254298;28;20459;-65
2021/11/03 22:55:14;;;;;;;22.98;10.43;;;;;;;;;;10246365;28;20046;-65
2021/11/03 23:00:11;;;;;;;;;;;;;;;;;;10251159;28;20041;-65
2021/11/03 23:05:09;;;;;;;23.43;8.50;;;;;;;;;;10244417;28;19932;-64
2021/11/03 23:10:07;;;;;;;18.67;8.63;;;;;;;;;;10228840;28;20045;-65
2021/11/03 23:15:05;;;;;;;13.93;6.63;;;;;;;;;;10242912;28;20030;-65
2021/11/03 23:20:04;;;;;;;19.83;9.20;;;;;;;;;;10249466;28;20068;-65
2021/11/03 23:25:01;;;;;;;;;;;;;;;;;;10250701;28;20504;-65
2021/11/03 23:29:59;;;;;;;24.67;10.52;;;;;;;;;;10249776;28;20296;-65
2021/11/03 23:34:57;;;;;;;19.83;9.33;;;;;;;;;;10248752;28;20033;-65
2021/11/03 23:39:54;;;;;;;27.83;10.57;;;;;;;;;;10241252;28;20388;-65
2021/11/03 23:44:51;;;;;;;21.00;9.00;;;;;;;;;;10246554;28;20117;-64
2021/11/03 23:49:52;;;;;;;18.87;8.73;;;;;;;;;;10248999;28;20046;-64
2021/11/03 23:54:52;;;;;;;23.85;10.48;;;;;;;;;;10242554;28;20065;-65
2021/11/03 23:59:49;;;;;;;24.50;10.57;;;;;;;;;;10243597;28;20057;-65
